Terminal Aerodrome Forecast
Issued by NWS Bismarck, ND

Home | Current Version | Previous Version | Graphics & Text | Print | Product List | Glossary Off
Versions: 1 2 3 4 5 6 7 8 9 10 11 12 13 14 15 16 17 18 19 20 21 22 23 24 25

105
FTUS43 KBIS 072249 AAB
TAFISN
TAF AMD
KISN 072249Z 0723/0818 30012G22KT 5SM -SN OVC040
     FM080100 30012KT P6SM BKN025
     FM081300 30007KT P6SM BKN015=

USA.gov is the U.S. government's official web portal to all federal, state and local government web resources and services.